createdAt,value
2019-02-18T00:02:11.678Z,53.20
2019-02-18T00:04:41.729Z,54.20
2019-02-18T00:07:14.406Z,55.80
2019-02-18T00:09:42.746Z,56.40
2019-02-18T00:12:11.836Z,57.60
2019-02-18T00:14:41.892Z,59.00
2019-02-18T00:17:12.120Z,58.80
2019-02-18T00:19:41.954Z,58.60
2019-02-18T00:22:12.115Z,58.50
2019-02-18T00:25:08.791Z,58.50
2019-02-18T00:28:53.393Z,58.40
2019-02-18T00:31:16.822Z,58.20
2019-02-18T00:37:31.760Z,55.20
2019-02-18T00:40:09.206Z,55.60
2019-02-18T00:42:48.497Z,53.80
2019-02-18T00:45:14.054Z,54.90
2019-02-18T00:47:56.355Z,55.50
2019-02-18T00:50:27.567Z,57.20
2019-02-18T00:52:57.709Z,57.70
2019-02-18T00:55:31.373Z,58.60
2019-02-18T00:58:01.486Z,58.20
2019-02-18T01:00:31.088Z,59.90
2019-02-18T01:03:20.307Z,60.00
2019-02-18T01:05:50.776Z,61.10
2019-02-18T01:08:45.144Z,60.40
2019-02-18T01:11:15.675Z,61.40
2019-02-18T01:14:12.905Z,61.40
2019-02-18T01:16:43.343Z,61.50
2019-02-18T01:19:17.289Z,59.40
2019-02-18T01:21:47.967Z,60.30
2019-02-18T01:24:17.796Z,61.00
2019-02-18T01:26:56.189Z,59.70
2019-02-18T01:29:31.698Z,61.50
2019-02-18T01:32:01.153Z,61.80
2019-02-18T01:34:30.631Z,62.90
2019-02-18T01:36:59.741Z,64.00
2019-02-18T01:39:29.913Z,64.40
2019-02-18T01:42:00.390Z,64.70
2019-02-18T01:44:29.900Z,64.90
2019-02-18T01:47:00.124Z,65.60
2019-02-18T01:49:29.828Z,65.50
2019-02-18T01:52:00.027Z,66.60
2019-02-18T01:54:30.178Z,66.50
2019-02-18T01:57:00.602Z,67.70
2019-02-18T01:59:32.296Z,68.30
2019-02-18T02:02:01.856Z,68.00
2019-02-18T02:04:31.573Z,68.00
2019-02-18T02:07:01.648Z,67.30
2019-02-18T02:09:31.796Z,68.50
2019-02-18T02:12:01.641Z,69.50
2019-02-18T02:14:39.598Z,70.70
2019-02-18T02:17:26.254Z,69.80
2019-02-18T02:19:57.315Z,67.10
2019-02-18T02:22:27.831Z,65.60
2019-02-18T02:24:57.303Z,65.50
2019-02-18T02:27:28.316Z,65.60
2019-02-18T02:29:57.793Z,65.40
2019-02-18T02:32:29.352Z,65.70
2019-02-18T02:34:59.480Z,66.40
2019-02-18T02:37:29.708Z,68.00
2019-02-18T02:46:16.925Z,70.10
2019-02-18T02:48:47.191Z,71.00
2019-02-18T02:51:40.207Z,70.80
2019-02-18T02:54:09.703Z,71.90
2019-02-18T02:56:41.331Z,71.40
2019-02-18T02:59:11.591Z,72.10
2019-02-18T03:02:00.426Z,73.10
2019-02-18T03:04:30.987Z,74.20
2019-02-18T03:07:00.780Z,74.90
2019-02-18T03:09:30.950Z,74.90
2019-02-18T03:12:03.607Z,74.60
2019-02-18T03:14:33.994Z,74.30
2019-02-18T03:17:03.415Z,74.50
2019-02-18T03:19:33.572Z,74.20
2019-02-18T03:22:03.747Z,74.20
2019-02-18T03:24:38.388Z,74.60
2019-02-18T03:27:17.153Z,74.00
2019-02-18T03:30:24.085Z,74.90
2019-02-18T03:32:56.679Z,75.30
2019-02-18T03:35:46.037Z,76.10
2019-02-18T03:38:31.271Z,76.30
2019-02-18T03:41:02.863Z,78.00
2019-02-18T03:43:25.688Z,77.70
2019-02-18T03:45:56.224Z,78.10
2019-02-18T03:51:14.051Z,79.90
2019-02-18T03:53:44.168Z,79.00
2019-02-18T03:57:25.189Z,78.30
2019-02-18T04:00:19.673Z,79.30
2019-02-18T04:03:11.538Z,78.60
2019-02-18T04:05:46.232Z,79.70
2019-02-18T04:08:15.949Z,80.30
2019-02-18T04:10:47.026Z,81.30
2019-02-18T04:13:41.704Z,81.10
2019-02-18T04:23:43.912Z,81.40
2019-02-18T04:26:20.585Z,82.10
2019-02-18T04:28:51.910Z,80.00
2019-02-18T04:34:34.501Z,78.10
2019-02-18T04:37:07.674Z,77.50
2019-02-18T04:46:43.421Z,78.50
2019-02-18T04:53:15.301Z,78.00
2019-02-18T04:55:46.857Z,78.50
2019-02-18T04:58:46.236Z,80.00
2019-02-18T05:01:21.718Z,81.10
2019-02-18T05:03:51.628Z,81.00
2019-02-18T05:06:25.607Z,81.30
2019-02-18T05:09:05.051Z,81.80
2019-02-18T05:15:01.153Z,82.30
2019-02-18T05:17:30.966Z,81.50
2019-02-18T05:20:01.535Z,81.70
2019-02-18T05:22:33.799Z,82.50
2019-02-18T05:26:09.074Z,83.00
2019-02-18T05:28:43.874Z,82.50
2019-02-18T05:31:14.249Z,83.00
2019-02-18T05:33:58.713Z,83.00
2019-02-18T05:43:36.731Z,83.50
2019-02-18T05:47:05.787Z,83.70
2019-02-18T05:53:13.940Z,86.30
2019-02-18T06:06:52.756Z,84.80
2019-02-18T06:09:30.189Z,84.60
2019-02-18T06:11:58.960Z,84.10
2019-02-18T06:14:29.099Z,84.80
2019-02-18T06:17:17.997Z,84.60
2019-02-18T06:19:47.609Z,84.90
2019-02-18T06:22:17.794Z,84.40
2019-02-18T06:24:48.284Z,83.10
2019-02-18T06:27:18.719Z,82.60
2019-02-18T06:29:48.449Z,81.40
2019-02-18T06:32:18.079Z,83.30
2019-02-18T06:34:47.934Z,81.30
2019-02-18T06:37:17.659Z,81.20
2019-02-18T06:39:47.396Z,79.70
2019-02-18T06:42:17.285Z,79.10
2019-02-18T06:45:00.743Z,79.10
2019-02-18T06:47:30.970Z,79.00
2019-02-18T06:50:00.828Z,78.30
2019-02-18T06:52:32.615Z,78.30
2019-02-18T06:55:02.465Z,78.70
2019-02-18T06:57:44.116Z,79.10
2019-02-18T07:00:34.204Z,80.50
2019-02-18T07:03:12.616Z,80.60
2019-02-18T07:05:56.465Z,81.10
2019-02-18T07:08:50.640Z,81.10
2019-02-18T07:11:31.215Z,80.40
2019-02-18T07:14:01.023Z,81.40
2019-02-18T07:16:30.426Z,81.00
2019-02-18T07:19:01.897Z,80.50
2019-02-18T07:21:33.115Z,81.10
2019-02-18T07:24:03.415Z,81.30
2019-02-18T07:27:07.723Z,81.30
2019-02-18T07:29:37.330Z,81.00
2019-02-18T07:32:07.511Z,81.00
2019-02-18T07:34:37.335Z,80.60
2019-02-18T07:37:09.567Z,80.50
2019-02-18T07:39:41.091Z,79.00
2019-02-18T07:42:14.076Z,78.80
2019-02-18T07:44:44.226Z,78.00
2019-02-18T07:51:03.462Z,77.30
2019-02-18T07:53:52.372Z,75.90
2019-02-18T07:57:27.063Z,74.00
2019-02-18T08:00:01.215Z,71.80
2019-02-18T08:03:48.685Z,70.30
2019-02-18T08:05:51.653Z,69.60
2019-02-18T08:11:49.630Z,68.40
2019-02-18T08:15:29.517Z,67.70
2019-02-18T08:19:15.641Z,67.20
2019-02-18T08:22:31.909Z,65.70
2019-02-18T08:29:20.592Z,66.10
2019-02-18T08:31:59.082Z,65.70
2019-02-18T08:34:29.523Z,65.50
2019-02-18T08:37:00.439Z,65.10
2019-02-18T08:39:30.326Z,65.10
2019-02-18T08:42:39.053Z,65.40
2019-02-18T08:48:17.674Z,65.00
2019-02-18T08:50:52.835Z,65.70
2019-02-18T08:53:25.971Z,65.10
2019-02-18T08:56:29.318Z,66.10
2019-02-18T08:58:56.134Z,64.80
2019-02-18T09:02:37.453Z,64.40
2019-02-18T09:05:22.097Z,64.70
2019-02-18T09:08:11.917Z,66.50
2019-02-18T09:10:42.441Z,66.10
2019-02-18T09:13:14.247Z,65.10
2019-02-18T09:15:44.141Z,64.80
2019-02-18T09:18:14.275Z,64.60
2019-02-18T09:20:44.330Z,64.00
2019-02-18T09:23:33.139Z,64.00
2019-02-18T09:26:03.967Z,64.00
2019-02-18T09:28:36.720Z,63.70
2019-02-18T09:31:06.632Z,63.40
2019-02-18T09:33:37.123Z,62.70
2019-02-18T09:36:07.224Z,62.90
2019-02-18T09:38:37.381Z,63.00
2019-02-18T09:41:07.609Z,63.00
2019-02-18T09:43:37.729Z,62.70
2019-02-18T09:46:08.026Z,62.50
2019-02-18T09:48:37.814Z,61.90
2019-02-18T09:51:08.013Z,61.10
2019-02-18T09:53:38.470Z,60.00
2019-02-18T09:56:08.171Z,60.10
2019-02-18T09:58:37.660Z,60.00
2019-02-18T10:01:07.840Z,59.90
2019-02-18T10:03:37.958Z,59.90
2019-02-18T10:06:07.824Z,59.80
2019-02-18T10:08:37.694Z,59.70
2019-02-18T10:11:07.872Z,59.30
2019-02-18T10:13:37.686Z,59.10
2019-02-18T10:16:07.949Z,58.90
2019-02-18T10:18:38.336Z,58.60
2019-02-18T10:21:20.435Z,58.20
2019-02-18T10:23:50.646Z,57.60
2019-02-18T10:26:20.656Z,56.80
2019-02-18T10:28:50.953Z,56.60
2019-02-18T10:31:20.797Z,56.00
2019-02-18T10:33:51.138Z,55.30
2019-02-18T10:36:21.058Z,55.80
2019-02-18T10:38:51.235Z,55.60
2019-02-18T10:41:21.458Z,55.20
2019-02-18T10:44:00.615Z,55.40
2019-02-18T10:46:34.583Z,55.60
2019-02-18T10:49:04.440Z,55.20
2019-02-18T10:51:34.683Z,54.60
2019-02-18T10:54:04.257Z,54.00
2019-02-18T10:56:37.092Z,53.70
2019-02-18T10:59:26.290Z,54.00
2019-02-18T11:01:56.635Z,53.30
2019-02-18T11:04:26.936Z,51.90
2019-02-18T11:06:56.767Z,49.80
2019-02-18T11:09:36.707Z,50.30
2019-02-18T11:12:08.246Z,51.60
2019-02-18T11:14:47.163Z,50.60
2019-02-18T11:17:47.954Z,51.70
2019-02-18T11:20:23.382Z,52.20
2019-02-18T11:22:55.031Z,51.20
2019-02-18T11:25:53.856Z,50.90
2019-02-18T11:28:24.517Z,50.40
2019-02-18T11:30:54.329Z,50.30
2019-02-18T11:33:24.472Z,49.30
2019-02-18T11:35:54.940Z,48.90
2019-02-18T11:38:25.551Z,47.70
2019-02-18T11:40:55.075Z,47.90
2019-02-18T11:43:25.378Z,48.00
2019-02-18T11:45:55.618Z,47.10
2019-02-18T11:48:25.709Z,46.40
2019-02-18T11:50:55.924Z,46.00
2019-02-18T11:53:25.847Z,46.00
2019-02-18T11:55:55.630Z,46.20
2019-02-18T11:58:26.223Z,45.70
2019-02-18T12:00:56.710Z,45.90
2019-02-18T12:03:27.272Z,46.40
2019-02-18T12:05:57.194Z,47.60
2019-02-18T12:08:26.681Z,46.70
2019-02-18T12:10:56.796Z,47.10
2019-02-18T12:13:26.580Z,47.40
2019-02-18T12:15:56.682Z,46.30
2019-02-18T12:18:27.223Z,46.00
2019-02-18T12:20:57.213Z,45.80
2019-02-18T12:23:27.466Z,46.50
2019-02-18T12:25:58.136Z,47.60
2019-02-18T12:28:28.404Z,48.30
2019-02-18T12:30:58.577Z,48.40
2019-02-18T12:33:29.112Z,48.30
2019-02-18T12:35:59.010Z,47.30
2019-02-18T12:38:28.847Z,47.10
2019-02-18T12:40:58.718Z,47.40
2019-02-18T12:43:29.376Z,47.00
2019-02-18T12:45:59.288Z,47.10
2019-02-18T12:48:29.605Z,46.50
2019-02-18T12:50:59.443Z,46.90
2019-02-18T12:53:29.120Z,46.10
2019-02-18T12:55:59.679Z,46.20
2019-02-18T12:58:29.491Z,45.60
2019-02-18T13:00:59.684Z,45.30
2019-02-18T13:03:30.645Z,45.70
2019-02-18T13:05:59.874Z,45.80
2019-02-18T13:08:30.056Z,46.20
2019-02-18T13:11:00.492Z,46.20
2019-02-18T13:13:31.453Z,45.40
2019-02-18T13:16:01.941Z,46.30
2019-02-18T13:18:32.267Z,44.20
2019-02-18T13:21:02.303Z,44.90
2019-02-18T13:23:32.719Z,44.80
2019-02-18T13:26:02.859Z,43.40
2019-02-18T13:28:33.157Z,43.40
2019-02-18T13:31:02.966Z,43.40
2019-02-18T13:33:33.907Z,43.90
2019-02-18T13:36:04.040Z,44.10
2019-02-18T13:38:36.667Z,45.40
2019-02-18T13:41:06.611Z,45.70
2019-02-18T13:43:37.108Z,44.20
2019-02-18T13:46:06.449Z,44.30
2019-02-18T13:48:36.621Z,44.50
2019-02-18T13:51:06.897Z,45.60
2019-02-18T13:53:36.383Z,44.90
2019-02-18T13:56:06.759Z,44.90
2019-02-18T13:58:36.940Z,45.60
2019-02-18T14:01:08.178Z,45.60
2019-02-18T14:03:37.598Z,45.30
2019-02-18T14:06:21.642Z,45.10
2019-02-18T14:08:51.630Z,44.40
2019-02-18T14:11:36.447Z,43.80
2019-02-18T14:14:06.966Z,44.70
2019-02-18T14:16:36.411Z,46.70
2019-02-18T14:19:07.079Z,47.40
2019-02-18T14:21:36.980Z,47.00
2019-02-18T14:24:15.913Z,45.90
2019-02-18T14:26:46.129Z,45.80
2019-02-18T14:29:15.666Z,46.30
2019-02-18T14:31:46.277Z,45.20
2019-02-18T14:34:15.984Z,45.50
2019-02-18T14:36:46.402Z,44.30
2019-02-18T14:39:27.394Z,44.70
2019-02-18T14:41:57.916Z,44.70
2019-02-18T14:44:28.381Z,44.40
2019-02-18T14:47:06.855Z,44.00
2019-02-18T14:49:40.493Z,44.20
2019-02-18T14:52:10.340Z,44.20
2019-02-18T14:54:39.791Z,44.10
2019-02-18T14:57:08.998Z,44.10
2019-02-18T14:59:39.046Z,44.30
2019-02-18T15:02:54.874Z,44.90
2019-02-18T15:05:25.537Z,44.30
2019-02-18T15:07:55.487Z,44.00
2019-02-18T15:10:26.155Z,48.40
2019-02-18T15:12:56.704Z,50.30
2019-02-18T15:15:26.620Z,51.10
2019-02-18T15:17:56.547Z,51.60
2019-02-18T15:20:26.024Z,51.30
2019-02-18T15:22:56.600Z,52.60
2019-02-18T15:25:26.436Z,53.00
2019-02-18T15:27:56.932Z,54.50
2019-02-18T15:30:26.540Z,54.30
2019-02-18T15:32:57.171Z,54.60
2019-02-18T15:35:27.474Z,54.70
2019-02-18T15:37:57.466Z,55.30
2019-02-18T15:40:26.730Z,55.60
2019-02-18T15:42:57.680Z,56.20
2019-02-18T15:45:27.857Z,56.70
2019-02-18T15:48:01.666Z,57.20
2019-02-18T15:50:29.973Z,57.40
2019-02-18T15:53:00.281Z,57.50
2019-02-18T15:55:30.250Z,58.10
2019-02-18T15:58:00.415Z,58.60
2019-02-18T16:00:30.793Z,59.80
2019-02-18T16:07:19.754Z,61.40
2019-02-18T16:10:07.155Z,61.90
2019-02-18T16:13:02.190Z,62.70
2019-02-18T16:15:48.813Z,63.30
2019-02-18T16:18:19.819Z,63.80
2019-02-18T16:21:30.860Z,64.60
2019-02-18T16:24:01.042Z,64.80
2019-02-18T16:26:31.537Z,65.10
2019-02-18T16:29:02.236Z,65.30
2019-02-18T16:31:53.135Z,65.60
2019-02-18T16:34:23.077Z,65.50
2019-02-18T16:36:52.994Z,65.10
2019-02-18T16:39:23.285Z,65.50
2019-02-18T16:41:53.240Z,65.80
2019-02-18T16:44:22.678Z,66.30
2019-02-18T16:46:53.252Z,66.20
2019-02-18T16:50:01.998Z,66.70
2019-02-18T16:52:32.297Z,66.20
2019-02-18T16:55:02.317Z,66.50
2019-02-18T16:57:32.733Z,67.00
2019-02-18T17:00:26.104Z,67.20
2019-02-18T17:06:50.101Z,67.50
2019-02-18T17:09:20.767Z,67.50
2019-02-18T17:12:37.853Z,67.60
2019-02-18T17:15:08.098Z,66.80
2019-02-18T17:17:46.468Z,64.30
2019-02-18T17:20:16.694Z,60.70
2019-02-18T17:26:32.376Z,55.10
2019-02-18T17:29:04.790Z,48.60
2019-02-18T17:31:44.637Z,45.50
2019-02-18T17:34:33.584Z,44.00
2019-02-18T17:37:31.799Z,43.60
2019-02-18T17:40:32.771Z,43.60
2019-02-18T17:43:27.941Z,42.80
2019-02-18T17:54:08.271Z,43.40
2019-02-18T17:56:42.067Z,44.30
2019-02-18T18:00:47.357Z,45.60
2019-02-18T18:03:01.476Z,45.60
2019-02-18T18:05:49.026Z,44.70
2019-02-18T18:09:46.035Z,43.80
2019-02-18T18:12:26.160Z,42.80
2019-02-18T18:14:58.352Z,42.40
2019-02-18T18:17:28.748Z,42.50
2019-02-18T18:19:59.071Z,42.30
2019-02-18T18:22:28.752Z,42.20
2019-02-18T18:24:59.138Z,42.10
2019-02-18T18:27:29.146Z,41.90
2019-02-18T18:29:59.560Z,42.00
2019-02-18T18:32:29.871Z,42.20
2019-02-18T18:34:59.916Z,42.60
2019-02-18T18:37:29.944Z,42.20
2019-02-18T18:40:00.464Z,42.30
2019-02-18T18:42:31.322Z,42.20
2019-02-18T18:45:01.313Z,42.60
2019-02-18T18:47:31.431Z,43.00
2019-02-18T18:50:01.378Z,43.30
2019-02-18T18:52:31.089Z,43.60
2019-02-18T18:55:01.830Z,43.90
2019-02-18T18:57:31.601Z,44.00
2019-02-18T19:00:02.165Z,44.10
2019-02-18T19:02:32.876Z,43.90
2019-02-18T19:05:03.112Z,43.60
2019-02-18T19:07:32.896Z,43.70
2019-02-18T19:10:03.305Z,43.50
2019-02-18T19:12:33.506Z,43.40
2019-02-18T19:15:03.402Z,43.80
2019-02-18T19:17:33.301Z,44.00
2019-02-18T19:20:03.118Z,44.20
2019-02-18T19:22:33.743Z,44.10
2019-02-18T19:25:03.936Z,43.80
2019-02-18T19:27:33.570Z,44.10
2019-02-18T19:30:04.011Z,44.10
2019-02-18T19:32:34.030Z,44.50
2019-02-18T19:35:05.022Z,44.50
2019-02-18T19:37:34.588Z,45.00
2019-02-18T19:40:04.638Z,45.50
2019-02-18T19:42:34.516Z,46.00
2019-02-18T19:45:04.507Z,46.40
2019-02-18T19:47:34.646Z,47.20
2019-02-18T19:50:05.053Z,48.20
2019-02-18T19:52:35.756Z,48.70
2019-02-18T19:55:05.493Z,49.10
2019-02-18T19:57:36.028Z,48.90
2019-02-18T20:00:05.283Z,49.20
2019-02-18T20:02:35.952Z,49.80
2019-02-18T20:05:06.063Z,51.00
2019-02-18T20:07:36.694Z,52.00
2019-02-18T20:10:07.048Z,53.00
2019-02-18T20:12:37.665Z,54.10
2019-02-18T20:15:08.202Z,54.10
2019-02-18T20:17:38.732Z,55.20
2019-02-18T20:20:09.888Z,55.60
2019-02-18T20:22:39.954Z,56.00
2019-02-18T20:25:09.809Z,56.30
2019-02-18T20:27:40.130Z,56.50
2019-02-18T20:30:10.031Z,57.20
2019-02-18T20:32:40.005Z,57.70
2019-02-18T20:35:11.020Z,57.90
2019-02-18T20:37:41.585Z,57.80
2019-02-18T20:40:11.778Z,57.60
2019-02-18T20:42:42.081Z,57.50
2019-02-18T20:45:12.700Z,58.00
2019-02-18T20:47:42.593Z,57.90
2019-02-18T20:50:16.072Z,57.90
2019-02-18T20:52:46.035Z,58.50
2019-02-18T20:55:16.526Z,59.00
2019-02-18T20:57:46.851Z,59.20
2019-02-18T21:00:44.586Z,58.90
2019-02-18T21:03:14.658Z,59.30
2019-02-18T21:05:44.581Z,57.70
2019-02-18T21:11:37.119Z,58.00
2019-02-18T21:18:34.702Z,58.60
2019-02-18T21:21:04.305Z,57.90
2019-02-18T21:23:34.922Z,57.80
2019-02-18T21:26:05.178Z,57.90
2019-02-18T21:28:35.299Z,57.70
2019-02-18T21:31:05.567Z,57.60
2019-02-18T21:33:36.271Z,57.80
2019-02-18T21:36:06.478Z,58.10
2019-02-18T21:38:36.211Z,58.70
2019-02-18T21:41:06.129Z,58.50
2019-02-18T21:43:38.604Z,58.60
2019-02-18T21:46:08.213Z,58.50
2019-02-18T21:48:37.772Z,58.50
2019-02-18T21:51:08.032Z,58.60
2019-02-18T21:53:38.535Z,58.30
2019-02-18T21:56:08.667Z,58.20
2019-02-18T21:58:38.908Z,58.40
2019-02-18T22:01:16.889Z,58.40
2019-02-18T22:03:47.029Z,58.70
2019-02-18T22:06:17.231Z,58.80
2019-02-18T22:08:46.834Z,58.80
2019-02-18T22:11:16.339Z,58.90
2019-02-18T22:13:46.659Z,59.00
2019-02-18T22:16:16.654Z,58.90
2019-02-18T22:18:47.155Z,59.00
2019-02-18T22:21:17.208Z,59.00
2019-02-18T22:23:47.603Z,59.10
2019-02-18T22:26:17.046Z,59.00
2019-02-18T22:28:46.831Z,59.00
2019-02-18T22:31:17.106Z,59.10
2019-02-18T22:33:47.108Z,59.10
2019-02-18T22:36:17.779Z,59.50
2019-02-18T22:38:47.722Z,59.80
2019-02-18T22:41:17.885Z,60.00
2019-02-18T22:43:47.786Z,60.40
2019-02-18T22:46:17.692Z,60.90
2019-02-18T22:48:47.446Z,61.10
2019-02-18T22:51:17.639Z,60.60
2019-02-18T22:53:47.992Z,61.50
2019-02-18T22:56:17.854Z,62.20
2019-02-18T22:58:47.964Z,61.30
2019-02-18T23:01:18.612Z,61.00
2019-02-18T23:03:48.439Z,61.00
2019-02-18T23:06:18.339Z,60.80
2019-02-18T23:08:48.531Z,60.80
2019-02-18T23:11:18.017Z,60.80
2019-02-18T23:13:48.138Z,61.00
2019-02-18T23:16:17.298Z,61.40
2019-02-18T23:18:47.096Z,61.60
2019-02-18T23:21:17.001Z,61.70
2019-02-18T23:23:47.241Z,61.50
2019-02-18T23:26:16.639Z,61.50
2019-02-18T23:28:46.850Z,61.90
2019-02-18T23:31:16.979Z,61.60
2019-02-18T23:33:46.887Z,61.90
2019-02-18T23:36:17.151Z,61.70
2019-02-18T23:38:47.460Z,61.10
2019-02-18T23:41:17.260Z,60.80
2019-02-18T23:43:47.731Z,61.30
2019-02-18T23:46:18.059Z,61.30
2019-02-18T23:48:47.587Z,61.60
2019-02-18T23:51:17.762Z,61.60
2019-02-18T23:53:47.660Z,61.80
2019-02-18T23:56:17.842Z,61.80
2019-02-18T23:58:47.776Z,61.90
